createdAt,value
2018-10-07T00:01:37.102Z,0.95
2018-10-07T00:04:05.397Z,1.25
2018-10-07T00:06:33.709Z,1.25
2018-10-07T00:09:01.954Z,1.30
2018-10-07T00:11:30.213Z,1.25
2018-10-07T00:13:58.437Z,1.50
2018-10-07T00:16:26.702Z,1.70
2018-10-07T00:18:54.958Z,1.95
2018-10-07T00:21:23.244Z,0.90
2018-10-07T00:23:51.482Z,1.05
2018-10-07T00:26:19.743Z,1.30
2018-10-07T00:28:47.989Z,1.40
2018-10-07T00:31:16.248Z,1.60
2018-10-07T00:33:44.525Z,1.80
2018-10-07T00:36:12.823Z,1.02
2018-10-07T00:38:41.053Z,1.05
2018-10-07T00:41:09.315Z,1.52
2018-10-07T00:43:37.572Z,1.45
2018-10-07T00:46:05.834Z,1.30
2018-10-07T00:48:34.147Z,1.22
2018-10-07T00:51:02.407Z,1.20
2018-10-07T00:53:30.675Z,1.20
2018-10-07T00:55:58.933Z,0.95
2018-10-07T00:58:27.198Z,1.00
2018-10-07T01:00:55.471Z,0.98
2018-10-07T01:03:23.705Z,0.95
2018-10-07T01:05:51.905Z,0.80
2018-10-07T01:08:20.178Z,1.00
2018-10-07T01:10:48.405Z,0.85
2018-10-07T01:13:16.638Z,0.85
2018-10-07T01:15:44.898Z,1.07
2018-10-07T01:18:13.173Z,2.55
2018-10-07T01:20:41.445Z,0.53
2018-10-07T01:23:09.675Z,1.07
2018-10-07T01:25:37.917Z,1.27
2018-10-07T01:28:06.253Z,1.32
2018-10-07T01:30:34.506Z,0.90
2018-10-07T01:33:02.770Z,0.80
2018-10-07T01:35:30.981Z,0.90
2018-10-07T01:37:59.251Z,1.50
2018-10-07T01:40:27.555Z,1.15
2018-10-07T01:42:55.822Z,1.15
2018-10-07T01:45:24.098Z,0.80
2018-10-07T01:47:52.377Z,0.72
2018-10-07T01:50:20.728Z,0.60
2018-10-07T01:52:49.493Z,0.90
2018-10-07T01:55:17.778Z,0.72
2018-10-07T01:57:46.037Z,0.70
2018-10-07T02:00:14.381Z,0.95
2018-10-07T02:02:42.695Z,1.15
2018-10-07T02:05:11.067Z,0.98
2018-10-07T02:07:39.298Z,1.10
2018-10-07T02:10:07.638Z,0.78
2018-10-07T02:12:35.914Z,0.60
2018-10-07T02:15:04.153Z,0.98
2018-10-07T02:17:32.447Z,1.00
2018-10-07T02:20:00.669Z,1.07
2018-10-07T02:22:28.946Z,1.15
2018-10-07T02:24:57.244Z,0.82
2018-10-07T02:27:25.539Z,0.88
2018-10-07T02:29:53.771Z,1.10
2018-10-07T02:32:22.033Z,0.50
2018-10-07T02:34:50.362Z,1.32
2018-10-07T02:37:18.591Z,0.72
2018-10-07T02:39:46.857Z,1.05
2018-10-07T02:42:15.174Z,0.60
2018-10-07T02:44:43.497Z,1.00
2018-10-07T02:47:11.773Z,0.60
2018-10-07T02:49:40.008Z,0.70
2018-10-07T02:52:08.302Z,0.93
2018-10-07T02:54:36.609Z,0.80
2018-10-07T02:57:04.896Z,0.62
2018-10-07T02:59:33.134Z,0.70
2018-10-07T03:02:01.367Z,0.85
2018-10-07T03:04:29.681Z,0.78
2018-10-07T03:06:57.934Z,1.50
2018-10-07T03:09:26.227Z,1.07
2018-10-07T03:11:54.450Z,0.72
2018-10-07T03:14:22.736Z,0.80
2018-10-07T03:16:51.092Z,0.90
2018-10-07T03:19:19.389Z,0.93
2018-10-07T03:21:47.692Z,0.93
2018-10-07T03:24:15.931Z,1.25
2018-10-07T03:26:44.237Z,0.72
2018-10-07T03:29:12.482Z,0.85
2018-10-07T03:31:40.685Z,0.70
2018-10-07T03:34:08.962Z,0.78
2018-10-07T03:36:37.242Z,0.53
2018-10-07T03:39:06.818Z,0.80
2018-10-07T03:41:35.170Z,0.68
2018-10-07T03:44:03.425Z,0.78
2018-10-07T03:46:31.649Z,0.78
2018-10-07T03:49:00.208Z,0.65
2018-10-07T03:51:28.477Z,0.80
2018-10-07T03:53:57.014Z,0.90
2018-10-07T03:56:25.350Z,0.93
2018-10-07T03:58:53.594Z,0.62
2018-10-07T04:01:21.818Z,1.37
2018-10-07T04:03:50.132Z,0.90
2018-10-07T04:06:18.367Z,0.65
2018-10-07T04:08:46.621Z,0.72
2018-10-07T04:11:14.957Z,0.90
2018-10-07T04:13:43.219Z,0.88
2018-10-07T04:16:11.470Z,0.80
2018-10-07T04:18:39.734Z,0.80
2018-10-07T04:21:07.979Z,0.78
2018-10-07T04:23:36.227Z,0.82
2018-10-07T04:26:04.491Z,0.70
2018-10-07T04:28:32.793Z,0.90
2018-10-07T04:31:01.054Z,0.78
2018-10-07T04:33:29.647Z,0.90
2018-10-07T04:35:57.930Z,1.47
2018-10-07T04:38:26.262Z,1.27
2018-10-07T04:40:54.522Z,1.30
2018-10-07T04:43:22.867Z,1.00
2018-10-07T04:45:51.222Z,0.85
2018-10-07T04:48:19.458Z,1.20
2018-10-07T04:50:47.681Z,1.02
2018-10-07T04:53:15.893Z,0.80
2018-10-07T04:55:44.142Z,0.70
2018-10-07T04:58:12.417Z,1.00
2018-10-07T05:00:40.761Z,0.90
2018-10-07T05:03:09.026Z,0.85
2018-10-07T05:05:37.574Z,1.00
2018-10-07T05:08:07.026Z,0.88
2018-10-07T05:10:45.696Z,1.20
2018-10-07T05:13:15.670Z,1.10
2018-10-07T05:15:44.179Z,1.00
2018-10-07T05:18:12.431Z,0.80
2018-10-07T05:20:40.674Z,1.15
2018-10-07T05:23:08.992Z,1.12
2018-10-07T05:25:37.205Z,1.07
2018-10-07T05:28:05.506Z,0.88
2018-10-07T05:30:33.790Z,1.12
2018-10-07T05:33:02.103Z,1.05
2018-10-07T05:35:30.408Z,1.15
2018-10-07T05:37:58.693Z,1.12
2018-10-07T05:40:27.026Z,0.90
2018-10-07T05:42:55.322Z,1.10
2018-10-07T05:45:23.618Z,1.07
2018-10-07T05:47:51.970Z,1.30
2018-10-07T05:50:20.221Z,0.82
2018-10-07T05:52:48.461Z,0.80
2018-10-07T05:55:16.706Z,1.30
2018-10-07T05:57:44.962Z,1.17
2018-10-07T06:00:14.010Z,1.02
2018-10-07T06:02:43.850Z,1.45
2018-10-07T06:05:12.168Z,1.10
2018-10-07T06:07:40.474Z,1.40
2018-10-07T06:10:08.885Z,1.47
2018-10-07T06:12:37.230Z,1.00
2018-10-07T06:15:28.054Z,1.05
2018-10-07T06:17:56.469Z,1.22
2018-10-07T06:20:24.746Z,1.65
2018-10-07T06:22:53.465Z,1.22
2018-10-07T06:25:21.796Z,1.02
2018-10-07T06:27:50.055Z,1.10
2018-10-07T06:30:18.321Z,1.00
2018-10-07T06:32:46.566Z,1.10
2018-10-07T06:35:14.882Z,1.47
2018-10-07T06:37:43.151Z,0.88
2018-10-07T06:40:11.742Z,1.20
2018-10-07T06:42:40.015Z,1.20
2018-10-07T06:45:08.291Z,1.20
2018-10-07T06:47:36.617Z,1.22
2018-10-07T06:50:05.269Z,1.20
2018-10-07T06:52:33.642Z,1.82
2018-10-07T06:55:01.971Z,1.10
2018-10-07T06:57:30.481Z,1.35
2018-10-07T06:59:59.206Z,1.20
2018-10-07T07:02:27.421Z,1.20
2018-10-07T07:04:55.946Z,1.02
2018-10-07T07:07:24.728Z,1.75
2018-10-07T07:09:53.373Z,1.60
2018-10-07T07:12:21.703Z,1.57
2018-10-07T07:14:49.929Z,1.45
2018-10-07T07:17:18.276Z,1.57
2018-10-07T07:19:46.519Z,1.27
2018-10-07T07:22:14.726Z,1.00
2018-10-07T07:24:42.982Z,1.12
2018-10-07T07:27:11.212Z,1.60
2018-10-07T07:29:39.563Z,1.40
2018-10-07T07:32:07.872Z,1.20
2018-10-07T07:34:36.116Z,1.37
2018-10-07T07:37:04.567Z,0.90
2018-10-07T07:39:32.807Z,1.30
2018-10-07T07:42:01.122Z,1.40
2018-10-07T07:44:29.506Z,1.67
2018-10-07T07:46:57.737Z,1.42
2018-10-07T07:49:25.972Z,1.27
2018-10-07T07:51:54.315Z,1.27
2018-10-07T07:54:23.204Z,1.10
2018-10-07T07:56:51.549Z,1.17
2018-10-07T07:59:19.786Z,1.30
2018-10-07T08:01:48.969Z,1.22
2018-10-07T08:04:17.269Z,1.00
2018-10-07T08:06:45.551Z,1.10
2018-10-07T08:09:13.834Z,1.00
2018-10-07T08:11:42.085Z,1.10
2018-10-07T08:14:10.344Z,1.35
2018-10-07T08:16:38.688Z,1.00
2018-10-07T08:19:06.937Z,1.10
2018-10-07T08:21:35.345Z,1.17
2018-10-07T08:24:03.806Z,1.20
2018-10-07T08:26:32.833Z,1.20
2018-10-07T08:29:01.202Z,1.32
2018-10-07T08:31:30.459Z,1.12
2018-10-07T08:33:58.734Z,1.10
2018-10-07T08:36:27.024Z,1.63
2018-10-07T08:38:55.373Z,1.40
2018-10-07T08:41:23.700Z,1.10
2018-10-07T08:43:52.502Z,0.90
2018-10-07T08:46:20.827Z,0.83
2018-10-07T08:48:49.104Z,1.40
2018-10-07T08:51:17.409Z,1.20
2018-10-07T08:53:45.649Z,1.10
2018-10-07T08:56:14.020Z,0.90
2018-10-07T08:58:42.158Z,0.80
2018-10-07T09:01:10.423Z,0.90
2018-10-07T09:03:38.781Z,0.93
2018-10-07T09:06:07.931Z,0.70
2018-10-07T09:08:36.683Z,1.27
2018-10-07T09:11:04.921Z,1.10
2018-10-07T09:13:34.497Z,0.67
2018-10-07T09:16:03.874Z,0.80
2018-10-07T09:18:32.286Z,1.07
2018-10-07T09:21:00.891Z,0.77
2018-10-07T09:23:29.158Z,1.20
2018-10-07T09:25:57.417Z,1.07
2018-10-07T09:28:25.721Z,0.70
2018-10-07T09:30:53.950Z,0.80
2018-10-07T09:33:22.238Z,0.60
2018-10-07T09:35:50.582Z,1.10
2018-10-07T09:38:18.873Z,0.73
2018-10-07T09:40:47.130Z,0.60
2018-10-07T09:43:15.386Z,0.83
2018-10-07T09:45:43.738Z,0.60
2018-10-07T09:48:12.006Z,0.80
2018-10-07T09:50:40.306Z,0.90
2018-10-07T09:53:08.638Z,0.80
2018-10-07T09:55:37.001Z,0.83
2018-10-07T09:58:05.339Z,1.00
2018-10-07T10:00:40.304Z,0.80
2018-10-07T10:03:09.849Z,0.90
2018-10-07T10:05:38.141Z,0.83
2018-10-07T10:08:06.556Z,0.60
2018-10-07T10:10:34.794Z,0.70
2018-10-07T10:13:03.128Z,0.70
2018-10-07T10:15:31.426Z,0.80
2018-10-07T10:18:04.898Z,0.87
2018-10-07T10:21:00.252Z,1.27
2018-10-07T10:23:34.987Z,1.07
2018-10-07T10:26:10.408Z,0.80
2018-10-07T10:29:44.489Z,1.37
2018-10-07T10:32:32.204Z,0.80
2018-10-07T10:35:16.279Z,1.40
2018-10-07T10:37:59.185Z,0.93
2018-10-07T10:40:31.614Z,0.60
2018-10-07T10:43:13.057Z,0.93
2018-10-07T10:46:48.909Z,1.20
2018-10-07T10:49:27.858Z,1.20
2018-10-07T10:52:13.518Z,0.77
2018-10-07T10:54:53.676Z,1.17
2018-10-07T10:57:26.797Z,0.90
2018-10-07T11:00:03.841Z,1.00
2018-10-07T11:04:44.626Z,0.80
2018-10-07T11:07:22.577Z,1.10
2018-10-07T11:10:26.457Z,1.00
2018-10-07T11:13:07.220Z,0.80
2018-10-07T11:15:42.277Z,0.97
2018-10-07T11:18:19.609Z,0.90
2018-10-07T11:23:03.820Z,1.20
2018-10-07T11:27:47.843Z,0.90
2018-10-07T11:30:27.513Z,1.23
2018-10-07T11:33:22.134Z,0.67
2018-10-07T11:36:00.937Z,0.73
2018-10-07T11:39:12.350Z,0.93
2018-10-07T11:41:45.579Z,1.30
2018-10-07T11:44:25.850Z,1.00
2018-10-07T11:47:01.007Z,1.30
2018-10-07T11:49:36.197Z,1.30
2018-10-07T11:52:18.807Z,1.10
2018-10-07T11:54:52.905Z,1.30
2018-10-07T11:57:21.198Z,0.97
2018-10-07T11:59:49.479Z,0.87
2018-10-07T12:02:17.881Z,1.47
2018-10-07T12:04:46.117Z,0.60
2018-10-07T12:07:14.373Z,1.00
2018-10-07T12:09:42.662Z,1.13
2018-10-07T12:12:11.021Z,1.03
2018-10-07T12:14:39.334Z,1.10
2018-10-07T12:17:08.044Z,1.00
2018-10-07T12:19:36.328Z,1.40
2018-10-07T12:22:04.714Z,1.00
2018-10-07T12:24:32.951Z,1.43
2018-10-07T12:27:01.307Z,0.97
2018-10-07T12:29:29.775Z,1.00
2018-10-07T12:31:58.167Z,1.40
2018-10-07T12:34:26.750Z,0.90
2018-10-07T12:36:55.226Z,0.80
2018-10-07T12:39:23.512Z,3.30
2018-10-07T12:41:51.753Z,1.20
2018-10-07T12:44:20.010Z,0.93
2018-10-07T12:46:48.303Z,1.40
2018-10-07T12:49:16.657Z,1.00
2018-10-07T12:51:45.206Z,1.00
2018-10-07T12:54:13.836Z,1.10
2018-10-07T12:56:42.092Z,0.77
2018-10-07T12:59:10.341Z,1.10
2018-10-07T13:01:38.579Z,1.10
2018-10-07T13:04:06.849Z,1.43
2018-10-07T13:06:35.206Z,1.13
2018-10-07T13:09:04.843Z,1.40
2018-10-07T13:11:33.150Z,1.00
2018-10-07T13:14:01.389Z,1.10
2018-10-07T13:16:29.750Z,1.00
2018-10-07T13:18:58.070Z,1.10
2018-10-07T13:21:26.362Z,0.90
2018-10-07T13:23:54.604Z,1.03
2018-10-07T13:26:22.957Z,0.60
2018-10-07T13:28:51.293Z,0.87
2018-10-07T13:31:19.614Z,1.00
2018-10-07T13:33:48.002Z,0.80
2018-10-07T13:36:16.309Z,0.87
2018-10-07T13:38:44.646Z,0.70
2018-10-07T13:41:12.967Z,1.00
2018-10-07T13:43:41.272Z,1.40
2018-10-07T13:46:09.672Z,1.27
2018-10-07T13:48:37.937Z,0.93
2018-10-07T13:51:06.233Z,1.00
2018-10-07T13:53:34.645Z,0.83
2018-10-07T13:56:02.954Z,1.10
2018-10-07T13:58:31.270Z,1.20
2018-10-07T14:00:59.565Z,1.30
2018-10-07T14:03:27.946Z,0.60
2018-10-07T14:05:56.186Z,1.47
2018-10-07T14:08:24.457Z,0.80
2018-10-07T14:10:52.817Z,1.23
2018-10-07T14:13:21.172Z,1.60
2018-10-07T14:15:49.510Z,0.93
2018-10-07T14:18:17.755Z,1.03
2018-10-07T14:20:45.985Z,1.10
2018-10-07T14:23:14.320Z,1.20
2018-10-07T14:25:42.710Z,1.30
2018-10-07T14:28:10.975Z,1.30
2018-10-07T14:30:39.239Z,0.87
2018-10-07T14:33:07.627Z,0.87
2018-10-07T14:35:35.946Z,0.50
2018-10-07T14:38:04.289Z,1.10
2018-10-07T14:40:32.710Z,0.93
2018-10-07T14:43:00.946Z,3.00
2018-10-07T14:45:29.277Z,2.77
2018-10-07T14:47:57.675Z,1.60
2018-10-07T14:50:26.019Z,0.90
2018-10-07T14:52:54.407Z,1.23
2018-10-07T14:55:22.692Z,0.90
2018-10-07T14:57:50.943Z,1.20
2018-10-07T15:00:19.314Z,0.65
2018-10-07T15:02:47.663Z,1.20
2018-10-07T15:05:16.021Z,0.88
2018-10-07T15:07:44.254Z,0.90
2018-10-07T15:10:12.582Z,1.35
2018-10-07T15:12:40.885Z,0.90
2018-10-07T15:15:09.230Z,1.00
2018-10-07T15:17:37.473Z,0.95
2018-10-07T15:20:06.418Z,1.05
2018-10-07T15:22:34.881Z,1.07
2018-10-07T15:25:03.243Z,1.47
2018-10-07T15:27:31.638Z,1.50
2018-10-07T15:30:00.010Z,1.10
2018-10-07T15:32:28.338Z,1.05
2018-10-07T15:34:56.686Z,1.10
2018-10-07T15:37:24.998Z,1.00
2018-10-07T15:39:53.529Z,2.00
2018-10-07T15:42:21.842Z,2.22
2018-10-07T15:44:50.200Z,1.20
2018-10-07T15:47:18.507Z,1.42
2018-10-07T15:49:46.797Z,0.82
2018-10-07T15:52:15.062Z,1.15
2018-10-07T15:54:43.350Z,1.35
2018-10-07T15:57:11.696Z,1.30
2018-10-07T15:59:39.935Z,1.05
2018-10-07T16:02:08.214Z,1.15
2018-10-07T16:04:36.566Z,0.98
2018-10-07T16:07:04.879Z,0.85
2018-10-07T16:09:33.123Z,0.68
2018-10-07T16:12:01.498Z,0.72
2018-10-07T16:14:29.821Z,1.00
2018-10-07T16:16:58.091Z,1.60
2018-10-07T16:19:26.399Z,1.20
2018-10-07T16:21:54.649Z,1.52
2018-10-07T16:24:22.943Z,1.55
2018-10-07T16:26:51.229Z,1.10
2018-10-07T16:29:19.665Z,1.30
2018-10-07T16:31:47.948Z,1.30
2018-10-07T16:34:16.265Z,1.30
2018-10-07T16:36:44.555Z,1.87
2018-10-07T16:39:12.871Z,2.92
2018-10-07T16:41:41.100Z,2.00
2018-10-07T16:44:09.394Z,2.00
2018-10-07T16:46:37.791Z,1.82
2018-10-07T16:49:06.154Z,2.22
2018-10-07T16:51:34.404Z,1.75
2018-10-07T16:54:02.679Z,2.27
2018-10-07T16:56:31.056Z,2.15
2018-10-07T16:58:59.327Z,1.70
2018-10-07T17:01:27.627Z,1.87
2018-10-07T17:03:55.887Z,1.70
2018-10-07T17:06:24.197Z,1.85
2018-10-07T17:08:52.562Z,2.25
2018-10-07T17:11:20.870Z,2.50
2018-10-07T17:13:49.139Z,2.90
2018-10-07T17:16:17.407Z,3.90
2018-10-07T17:18:45.774Z,5.30
2018-10-07T17:21:14.275Z,3.30
2018-10-07T17:23:42.566Z,4.17
2018-10-07T17:26:10.876Z,4.95
2018-10-07T17:28:39.111Z,4.80
2018-10-07T17:31:07.524Z,4.85
2018-10-07T17:33:35.793Z,3.67
2018-10-07T17:36:04.079Z,3.75
2018-10-07T17:38:32.330Z,3.50
2018-10-07T17:41:00.799Z,5.15
2018-10-07T17:43:29.110Z,5.03
2018-10-07T17:45:57.358Z,6.50
2018-10-07T17:48:25.439Z,5.75
2018-10-07T17:50:53.628Z,3.80
2018-10-07T17:53:21.966Z,3.67
2018-10-07T17:55:50.402Z,4.72
2018-10-07T17:58:18.809Z,4.20
2018-10-07T18:00:47.174Z,5.17
2018-10-07T18:03:15.553Z,5.60
2018-10-07T18:05:43.570Z,6.35
2018-10-07T18:08:11.652Z,7.25
2018-10-07T18:10:39.998Z,7.45
2018-10-07T18:13:08.165Z,8.55
2018-10-07T18:15:36.219Z,8.53
2018-10-07T18:18:04.302Z,8.65
2018-10-07T18:20:32.640Z,8.40
2018-10-07T18:23:00.933Z,8.48
2018-10-07T18:25:29.288Z,9.20
2018-10-07T18:27:57.590Z,7.97
2018-10-07T18:30:25.946Z,6.78
2018-10-07T18:32:54.291Z,7.15
2018-10-07T18:35:22.609Z,5.20
2018-10-07T18:37:51.059Z,5.03
2018-10-07T18:40:19.357Z,4.03
2018-10-07T18:42:47.639Z,5.25
2018-10-07T18:45:15.929Z,5.92
2018-10-07T18:47:44.262Z,5.92
2018-10-07T18:50:12.517Z,5.65
2018-10-07T18:52:40.814Z,6.90
2018-10-07T18:55:09.081Z,5.67
2018-10-07T18:57:37.482Z,5.90
2018-10-07T19:00:07.178Z,5.60
2018-10-07T19:02:35.497Z,6.20
2018-10-07T19:05:03.768Z,6.90
2018-10-07T19:07:32.100Z,6.05
2018-10-07T19:10:00.456Z,7.03
2018-10-07T19:12:28.706Z,6.35
2018-10-07T19:14:56.930Z,6.90
2018-10-07T19:17:25.237Z,6.80
2018-10-07T19:19:53.639Z,7.05
2018-10-07T19:22:22.320Z,6.45
2018-10-07T19:24:50.649Z,6.33
2018-10-07T19:27:19.146Z,5.22
2018-10-07T19:29:47.636Z,5.17
2018-10-07T19:32:15.852Z,5.33
2018-10-07T19:34:44.083Z,4.50
2018-10-07T19:37:12.640Z,4.17
2018-10-07T19:39:40.758Z,4.45
2018-10-07T19:42:09.072Z,4.42
2018-10-07T19:44:37.403Z,3.85
2018-10-07T19:47:05.634Z,3.25
2018-10-07T19:49:33.985Z,3.22
2018-10-07T19:52:02.276Z,3.60
2018-10-07T19:54:30.563Z,3.25
2018-10-07T19:56:58.890Z,3.35
2018-10-07T19:59:27.204Z,3.47
2018-10-07T20:01:55.422Z,5.62
2018-10-07T20:04:23.722Z,3.90
2018-10-07T20:06:52.025Z,6.03
2018-10-07T20:09:20.415Z,8.55
2018-10-07T20:11:48.738Z,6.97
2018-10-07T20:14:17.031Z,8.10
2018-10-07T20:16:45.345Z,6.83
2018-10-07T20:19:13.686Z,4.42
2018-10-07T20:21:42.022Z,4.60
2018-10-07T20:24:10.382Z,4.55
2018-10-07T20:26:38.802Z,4.42
2018-10-07T20:29:07.095Z,4.60
2018-10-07T20:31:35.391Z,5.03
2018-10-07T20:34:03.732Z,4.37
2018-10-07T20:36:32.061Z,4.25
2018-10-07T20:39:00.412Z,4.85
2018-10-07T20:41:28.715Z,5.62
2018-10-07T20:43:57.184Z,6.08
2018-10-07T20:46:25.560Z,6.50
2018-10-07T20:48:53.940Z,7.08
2018-10-07T20:51:22.200Z,6.67
2018-10-07T20:53:50.422Z,7.87
2018-10-07T20:56:18.727Z,8.48
2018-10-07T20:58:46.978Z,8.73
2018-10-07T21:01:15.378Z,8.75
2018-10-07T21:03:43.714Z,8.48
2018-10-07T21:06:12.102Z,9.35
2018-10-07T21:08:40.418Z,9.30
2018-10-07T21:11:08.734Z,9.50
2018-10-07T21:13:37.348Z,10.03
2018-10-07T21:16:05.666Z,10.15
2018-10-07T21:18:34.022Z,10.98
2018-10-07T21:21:02.598Z,9.45
2018-10-07T21:23:30.889Z,9.63
2018-10-07T21:25:59.221Z,8.20
2018-10-07T21:28:27.493Z,8.73
2018-10-07T21:30:55.757Z,8.13
2018-10-07T21:33:24.068Z,8.13
2018-10-07T21:35:52.469Z,7.22
2018-10-07T21:38:20.762Z,8.10
2018-10-07T21:40:49.024Z,10.43
2018-10-07T21:43:17.379Z,11.20
2018-10-07T21:45:45.705Z,8.85
2018-10-07T21:48:14.022Z,7.10
2018-10-07T21:50:42.347Z,6.87
2018-10-07T21:53:14.846Z,6.50
2018-10-07T21:55:43.122Z,7.67
2018-10-07T21:58:11.502Z,9.75
2018-10-07T22:00:39.773Z,7.45
2018-10-07T22:03:08.226Z,7.08
2018-10-07T22:05:36.580Z,7.92
2018-10-07T22:08:04.937Z,7.75
2018-10-07T22:10:33.297Z,8.30
2018-10-07T22:13:01.582Z,7.92
2018-10-07T22:15:29.906Z,8.38
2018-10-07T22:17:58.264Z,7.60
2018-10-07T22:20:26.688Z,10.25
2018-10-07T22:22:55.074Z,12.82
2018-10-07T22:25:23.402Z,9.78
2018-10-07T22:27:51.729Z,8.38
2018-10-07T22:30:20.090Z,8.58
2018-10-07T22:32:48.383Z,8.23
2018-10-07T22:35:16.804Z,9.28
2018-10-07T22:37:45.125Z,8.30
2018-10-07T22:40:13.379Z,9.18
2018-10-07T22:42:41.765Z,8.00
2018-10-07T22:45:10.098Z,8.38
2018-10-07T22:47:38.377Z,8.00
2018-10-07T22:50:06.674Z,9.40
2018-10-07T22:52:34.929Z,8.63
2018-10-07T22:55:03.370Z,9.73
2018-10-07T22:57:31.624Z,9.60
2018-10-07T23:00:00.094Z,8.58
2018-10-07T23:02:28.372Z,9.38
2018-10-07T23:04:56.670Z,10.32
2018-10-07T23:07:24.935Z,9.90
2018-10-07T23:09:53.146Z,8.80
2018-10-07T23:12:21.395Z,9.03
2018-10-07T23:14:49.748Z,9.25
2018-10-07T23:17:17.975Z,9.38
2018-10-07T23:19:46.246Z,8.83
2018-10-07T23:22:14.502Z,9.25
2018-10-07T23:24:42.872Z,8.55
2018-10-07T23:27:11.094Z,9.38
2018-10-07T23:29:39.539Z,9.75
2018-10-07T23:32:07.754Z,7.72
2018-10-07T23:34:36.189Z,7.72
2018-10-07T23:37:04.410Z,7.75
2018-10-07T23:39:32.697Z,7.40
2018-10-07T23:42:01.065Z,8.43
2018-10-07T23:44:29.321Z,7.45
2018-10-07T23:46:57.674Z,6.75
2018-10-07T23:49:25.989Z,6.70
2018-10-07T23:51:54.342Z,6.30
2018-10-07T23:54:22.766Z,7.67
2018-10-07T23:56:51.026Z,7.08
2018-10-07T23:59:19.349Z,6.85
